Tangshan, China
Current Conditions -  °F | °C
As of 2:00 AM on Friday 30 Jan 2015 (Local Time) from ZBTJ Reporting Station
Clear Clear  
Wind Chill: 12°   Ceiling: Unl
Heat Index: 25°   Visibility: 6mi
Dew Point:   Wind: 16mph
Humidity: 34%   Direction: 340°NNW
Pressure: 30.5"   Gusts: NA
Location:  39.62°N, 118.19°E
Report Text: ZBTJ 291800Z 34007MPS CAVOK M04/M18 Q1033 NOSIG
Loading
Personal Weather Stations






























Interactive Weather Map New forecast layout! Learn more

10-Day Weather Forecast

Advertisements
Track Severe Weather on mobile